Time;durP1;ratioP1;P1;durP2;ratioP2;P2;SDS_P1;SDS_P2;PMS_P1;PMS_P2;Temp;Humidity;BMP_temperature;BMP_pressure;BME280_temperature;BME280_humidity;BME280_pressure;Samples;Min_cycle;Max_cycle;Signal;HPM_P1;HPM_P2
2021/06/19 00:00:25;;;;;;;8.90;7.13;;;;;;;22.04;54.07;100270.09;5111438;28;20260;-71
2021/06/19 00:02:52;;;;;;;8.63;6.65;;;;;;;21.97;54.16;100261.94;5111502;28;20136;-72
2021/06/19 00:05:20;;;;;;;12.82;7.85;;;;;;;21.95;54.01;100256.75;5111868;28;20057;-71
2021/06/19 00:07:47;;;;;;;9.85;6.93;;;;;;;21.95;54.16;100250.53;5111871;28;20058;-71
2021/06/19 00:10:15;;;;;;;9.55;7.10;;;;;;;21.90;54.27;100258.31;5110920;28;20051;-72
2021/06/19 00:12:45;;;;;;;9.88;7.22;;;;;;;21.87;54.30;100258.69;5108606;28;20043;-73
2021/06/19 00:15:15;;;;;;;10.80;7.93;;;;;;;;;;5110144;28;20046;-71
2021/06/19 00:17:43;;;;;;;9.00;7.85;;;;;;;21.83;54.34;100258.22;5108726;28;20043;-71
2021/06/19 00:20:13;;;;;;;9.52;7.15;;;;;;;21.82;54.58;100261.91;5108094;28;20048;-72
2021/06/19 00:22:41;;;;;;;11.75;7.55;;;;;;;21.72;54.85;100256.00;5108210;28;20628;-71
2021/06/19 00:25:09;;;;;;;8.15;7.20;;;;;;;21.67;55.20;100258.41;5088773;28;20054;-72
2021/06/19 00:27:36;;;;;;;7.90;6.68;;;;;;;21.64;55.03;100256.91;5107481;28;20043;-71
2021/06/19 00:30:08;;;;;;;9.45;7.65;;;;;;;21.63;55.08;100262.47;5108705;28;20043;-71
2021/06/19 00:32:34;;;;;;;9.85;7.70;;;;;;;21.62;55.18;100266.19;5108084;28;20051;-72
2021/06/19 00:35:04;;;;;;;9.40;7.03;;;;;;;21.61;55.00;100259.13;5107810;28;20657;-72
2021/06/19 00:37:31;;;;;;;13.77;7.30;;;;;;;21.64;54.99;100258.75;5108947;28;20047;-70
2021/06/19 00:39:59;;;;;;;9.80;7.22;;;;;;;21.57;55.39;100264.03;5107219;28;20040;-72
2021/06/19 00:42:29;;;;;;;10.35;6.85;;;;;;;21.54;55.36;100259.84;5108058;28;20047;-70
2021/06/19 00:44:57;;;;;;;8.13;7.15;;;;;;;21.45;55.38;100257.41;5108854;28;20635;-72
2021/06/19 00:47:30;;;;;;;10.13;7.15;;;;;;;21.42;55.88;100261.28;5108442;28;20116;-71
2021/06/19 00:49:58;;;;;;;8.30;7.28;;;;;;;21.41;55.82;100254.25;5108714;28;20047;-72
2021/06/19 00:52:25;;;;;;;9.00;8.00;;;;;;;21.39;55.74;100261.63;5108719;28;20043;-70
2021/06/19 00:54:52;;;;;;;9.65;7.55;;;;;;;21.37;55.78;100263.69;5107928;28;20039;-72
2021/06/19 00:57:19;;;;;;;10.93;8.27;;;;;;;21.36;55.99;100265.53;5108086;28;20048;-72
2021/06/19 00:59:46;;;;;;;13.98;8.75;;;;;;;21.34;55.88;100258.69;5107835;28;20381;-73
2021/06/19 01:02:13;;;;;;;9.93;7.80;;;;;;;21.30;56.15;100262.72;5090584;28;20048;-70
2021/06/19 01:04:41;;;;;;;8.18;7.35;;;;;;;21.28;55.84;100254.84;5108869;28;20059;-72
2021/06/19 01:07:08;;;;;;;7.90;7.05;;;;;;;21.20;56.30;100263.81;5107865;28;20071;-71
2021/06/19 01:09:36;;;;;;;10.02;7.50;;;;;;;21.17;56.55;100260.66;5107336;28;20062;-69
2021/06/19 01:12:04;;;;;;;8.55;6.97;;;;;;;21.15;56.71;100260.84;5108344;28;20047;-70
2021/06/19 01:14:31;;;;;;;13.35;7.82;;;;;;;21.19;56.50;100272.91;5107872;28;20209;-69
2021/06/19 01:16:58;;;;;;;11.02;7.68;;;;;;;21.15;56.49;100271.56;5107988;28;20055;-72
2021/06/19 01:19:27;;;;;;;12.50;7.40;;;;;;;21.13;56.40;100265.56;5107701;28;20040;-72
2021/06/19 01:21:56;;;;;;;9.90;8.18;;;;;;;21.10;56.64;100265.91;5107391;28;20123;-70
2021/06/19 01:24:24;;;;;;;8.18;7.00;;;;;;;21.00;57.09;100263.47;5107823;28;20044;-71
2021/06/19 01:26:54;;;;;;;10.52;7.38;;;;;;;21.00;57.04;100257.28;5108021;28;20078;-70
2021/06/19 01:29:21;;;;;;;9.18;7.35;;;;;;;21.02;57.00;100260.59;5106205;28;20427;-72
2021/06/19 01:31:49;;;;;;;12.77;8.70;;;;;;;20.98;57.02;100262.00;5107408;28;20157;-70
2021/06/19 01:34:18;;;;;;;9.20;7.03;;;;;;;20.95;57.16;100252.44;5107511;28;20047;-70
2021/06/19 01:36:45;;;;;;;12.02;7.68;;;;;;;20.94;56.91;100252.59;5106923;28;20078;-72
2021/06/19 01:39:12;;;;;;;8.63;7.72;;;;;;;20.93;57.11;100262.50;5107275;28;20055;-69
2021/06/19 01:41:39;;;;;;;10.38;7.68;;;;;;;20.90;57.07;100262.03;5107346;28;20062;-70
2021/06/19 01:44:09;;;;;;;10.35;8.23;;;;;;;20.86;57.28;100269.63;5106045;28;20051;-70
2021/06/19 01:46:39;;;;;;;8.75;7.38;;;;;;;20.80;57.47;100262.28;5107362;28;20051;-69
2021/06/19 01:49:08;;;;;;;13.93;8.55;;;;;;;20.77;57.71;100263.47;5108033;28;20085;-71
2021/06/19 01:51:35;;;;;;;14.63;9.00;;;;;;;20.72;57.37;100263.16;5108025;28;20040;-71
2021/06/19 01:54:02;;;;;;;9.23;8.30;;;;;;;20.65;57.76;100256.00;5107173;28;20044;-71
2021/06/19 01:56:29;;;;;;;10.48;7.82;;;;;;;20.54;57.81;100258.03;5106487;28;20044;-70
2021/06/19 01:58:56;;;;;;;8.95;8.05;;;;;;;20.45;58.41;100256.41;5107269;28;20687;-70
2021/06/19 02:01:24;;;;;;;9.85;8.85;;;;;;;20.41;58.40;100258.59;5107027;28;20161;-71
2021/06/19 02:03:51;;;;;;;12.82;9.38;;;;;;;20.37;58.64;100264.50;5106106;28;20427;-69
2021/06/19 02:06:18;;;;;;;11.13;8.57;;;;;;;20.38;58.27;100258.97;5106701;28;20051;-70
2021/06/19 02:08:58;;;;;;;9.48;8.55;;;;;;;20.33;58.46;100261.34;5088583;28;20036;-70
2021/06/19 02:11:25;;;;;;;10.10;9.02;;;;;;;20.35;58.54;100263.84;5106923;28;20649;-71
2021/06/19 02:13:52;;;;;;;14.32;8.10;;;;;;;20.30;58.57;100264.34;5108730;28;20051;-71
2021/06/19 02:16:20;;;;;;;10.15;8.88;;;;;;;20.26;58.71;100257.69;5107509;28;20238;-71
2021/06/19 02:18:49;;;;;;;9.70;7.70;;;;;;;20.26;58.91;100271.09;5107515;28;20074;-72
2021/06/19 02:21:16;;;;;;;9.00;7.82;;;;;;;20.17;58.83;100256.88;5089404;28;20050;-72
2021/06/19 02:23:43;;;;;;;11.13;9.38;;;;;;;20.13;59.03;100257.38;5107674;28;20143;-72
2021/06/19 02:26:10;;;;;;;10.20;9.10;;;;;;;20.06;59.48;100251.91;5108578;28;20054;-70
2021/06/19 02:28:37;;;;;;;14.68;9.23;;;;;;;19.99;59.47;100257.09;5108528;28;20043;-71
2021/06/19 02:31:03;;;;;;;10.52;9.27;;;;;;;19.95;59.44;100258.47;5108578;28;20055;-72
2021/06/19 02:33:30;;;;;;;13.20;8.90;;;;;;;19.92;59.97;100266.00;5107522;28;20047;-71
2021/06/19 02:35:59;;;;;;;12.88;9.10;;;;;;;19.99;59.40;100259.78;5107668;28;20119;-72
2021/06/19 02:38:26;;;;;;;12.88;9.13;;;;;;;20.01;59.40;100262.28;5107828;28;20044;-72
2021/06/19 02:40:54;;;;;;;14.73;9.35;;;;;;;20.03;59.44;100266.47;5107215;28;20051;-72
2021/06/19 02:43:23;;;;;;;10.38;8.40;;;;;;;20.04;59.44;100261.94;5111345;28;20074;-71
2021/06/19 02:45:51;;;;;;;9.05;7.80;;;;;;;20.05;59.30;100260.94;5110998;28;20561;-71
2021/06/19 02:48:18;;;;;;;10.50;8.95;;;;;;;20.05;59.38;100258.25;5110433;28;20058;-73
2021/06/19 02:50:45;;;;;;;13.18;8.73;;;;;;;20.08;59.59;100263.28;5112089;28;20040;-72
2021/06/19 02:53:14;;;;;;;15.48;8.30;;;;;;;20.15;59.58;100268.75;5111067;28;20063;-72
2021/06/19 02:55:42;;;;;;;14.30;8.07;;;;;;;20.19;59.40;100270.09;5110297;28;20047;-71
2021/06/19 02:58:11;;;;;;;11.60;8.13;;;;;;;20.20;59.30;100269.09;5110641;28;20054;-71
2021/06/19 03:00:38;;;;;;;12.52;9.18;;;;;;;20.17;59.57;100266.78;5111258;28;20063;-73
2021/06/19 03:03:05;;;;;;;10.20;9.00;;;;;;;20.19;59.48;100267.44;5110506;28;20052;-72
2021/06/19 03:05:33;;;;;;;11.45;8.15;;;;;;;20.24;59.12;100265.06;5110463;28;20047;-72
2021/06/19 03:08:01;;;;;;;11.48;9.13;;;;;;;20.28;59.26;100273.59;5098012;28;20055;-72
2021/06/19 03:10:42;;;;;;;11.32;10.00;;;;;;;20.31;59.20;100266.03;5091777;28;20227;-70
2021/06/19 03:13:09;;;;;;;11.63;8.57;;;;;;;20.33;59.21;100272.06;5072885;28;20048;-72
2021/06/19 03:15:36;;;;;;;9.52;8.50;;;;;;;20.33;59.28;100276.56;5090353;28;20052;-71
2021/06/19 03:18:04;;;;;;;9.50;8.50;;;;;;;20.37;59.05;100275.22;5091767;28;20044;-71
2021/06/19 03:20:31;;;;;;;9.55;8.40;;;;;;;20.41;59.02;100272.00;5090350;28;20051;-70
2021/06/19 03:22:59;;;;;;;10.68;9.15;;;;;;;20.44;58.94;100279.72;5086534;28;20083;-73
2021/06/19 03:25:29;;;;;;;11.52;8.20;;;;;;;20.46;59.08;100282.22;5094463;28;20050;-73
2021/06/19 03:27:58;;;;;;;13.68;9.23;;;;;;;20.49;58.55;100279.19;5091730;28;20040;-70
2021/06/19 03:30:26;;;;;;;11.15;8.35;;;;;;;20.55;58.88;100283.03;5091175;28;20238;-74
2021/06/19 03:32:53;;;;;;;10.30;8.77;;;;;;;20.58;58.78;100294.25;5091520;28;20499;-72
2021/06/19 03:35:21;;;;;;;9.68;8.00;;;;;;;20.61;58.93;100287.72;5090913;28;20044;-73
2021/06/19 03:37:48;;;;;;;11.38;8.90;;;;;;;20.66;58.45;100287.19;5091632;28;20108;-72
2021/06/19 03:40:17;;;;;;;12.68;8.43;;;;;;;20.71;58.76;100293.69;5089974;28;20044;-71
2021/06/19 03:42:46;;;;;;;10.80;9.35;;;;;;;20.78;58.40;100300.03;5091423;28;20072;-73
2021/06/19 03:45:14;;;;;;;14.38;9.18;;;;;;;20.87;58.45;100299.97;5091491;28;20048;-72
2021/06/19 03:47:43;;;;;;;11.13;8.75;;;;;;;20.95;58.17;100303.44;5098064;28;20047;-72
2021/06/19 03:50:17;;;;;;;9.07;8.18;;;;;;;21.02;58.08;100292.84;5096478;28;20586;-72
2021/06/19 03:52:44;;;;;;;13.50;10.15;;;;;;;21.09;57.89;100298.34;5098104;28;20044;-74
2021/06/19 03:55:12;;;;;;;11.52;9.18;;;;;;;21.12;57.77;100295.28;5095702;28;20044;-73
2021/06/19 03:57:39;;;;;;;13.40;9.77;;;;;;;21.18;58.11;100302.63;5093466;28;20054;-72
2021/06/19 04:00:10;;;;;;;13.68;9.80;;;;;;;21.26;57.78;100299.03;5094819;28;20048;-74
2021/06/19 04:02:37;;;;;;;14.48;10.50;;;;;;;21.35;57.73;100292.56;5090576;28;20491;-73
2021/06/19 04:05:04;;;;;;;11.85;9.52;;;;;;;21.40;57.80;100290.19;5072108;28;20051;-74
2021/06/19 04:07:33;;;;;;;10.52;8.35;;;;;;;21.44;57.53;100288.81;5098730;28;20055;-71
2021/06/19 04:10:00;;;;;;;11.23;9.75;;;;;;;21.52;57.51;100288.78;5110097;28;20051;-72
2021/06/19 04:12:27;;;;;;;11.38;9.30;;;;;;;21.57;57.47;100289.06;5110892;28;20122;-72
2021/06/19 04:14:54;;;;;;;10.20;8.18;;;;;;;21.63;57.04;100295.56;5110751;28;20047;-71
2021/06/19 04:17:22;;;;;;;9.95;8.73;;;;;;;21.71;56.78;100295.47;5110263;28;20047;-72
2021/06/19 04:19:49;;;;;;;11.60;9.02;;;;;;;21.77;56.83;100292.06;5110521;28;20051;-72
2021/06/19 04:22:16;;;;;;;11.65;8.55;;;;;;;21.89;56.91;100295.13;5109732;28;20048;-73
2021/06/19 04:24:44;;;;;;;11.85;8.05;;;;;;;21.95;56.49;100296.25;5109183;28;20050;-72
2021/06/19 04:27:14;;;;;;;11.10;9.10;;;;;;;22.03;56.49;100293.47;5110110;28;20487;-71
2021/06/19 04:29:42;;;;;;;9.50;8.57;;;;;;;22.11;56.32;100293.38;5110562;28;20047;-72
2021/06/19 04:32:10;;;;;;;8.85;7.88;;;;;;;22.18;56.41;100298.00;5110563;28;20047;-72
2021/06/19 04:34:41;;;;;;;12.32;9.43;;;;;;;22.26;56.15;100293.41;5110455;28;20044;-72
2021/06/19 04:37:09;;;;;;;8.65;7.78;;;;;;;22.33;55.96;100291.63;5109893;28;20549;-73
2021/06/19 04:39:39;;;;;;;11.32;7.80;;;;;;;22.42;55.84;100288.81;5109942;28;20051;-72
2021/06/19 04:42:08;;;;;;;10.80;9.30;;;;;;;22.53;55.55;100289.19;5110272;28;20055;-73
2021/06/19 04:47:25;;;;;;;9.93;7.82;;;;;;;23.36;54.20;100279.91;5109116;28;20044;-74
2021/06/19 04:49:53;;;;;;;10.85;9.15;;;;;;;25.09;49.88;100288.09;5109435;28;20048;-72
2021/06/19 04:52:20;;;;;;;10.02;7.68;;;;;;;26.60;46.71;100289.16;5111389;28;20494;-71
2021/06/19 04:54:48;;;;;;;10.82;7.97;;;;;;;27.79;44.18;100289.38;5057703;28;20234;-72
2021/06/19 04:57:20;;;;;;;13.10;9.18;;;;;;;28.82;41.84;100286.97;5110167;28;20044;-73
2021/06/19 04:59:52;;;;;;;10.43;7.03;;;;;;;29.47;40.60;100287.00;5109824;28;20055;-73
2021/06/19 05:02:19;;;;;;;9.77;7.82;;;;;;;30.05;39.37;100281.78;5109801;28;20130;-73
2021/06/19 05:04:49;;;;;;;9.10;7.55;;;;;;;30.35;38.20;100276.19;5058015;28;20040;-74
2021/06/19 05:07:19;;;;;;;11.10;8.05;;;;;;;30.75;37.63;100269.88;5110517;28;20142;-73
2021/06/19 05:09:46;;;;;;;9.23;7.03;;;;;;;31.08;36.87;100273.78;5090456;28;20043;-72
2021/06/19 05:12:14;;;;;;;10.85;7.10;;;;;;;31.39;35.97;100266.09;5110602;28;20043;-72
2021/06/19 05:14:41;;;;;;;10.02;7.85;;;;;;;31.72;35.75;100270.69;5109835;28;20066;-73
2021/06/19 05:17:09;;;;;;;8.13;7.07;;;;;;;32.00;35.39;100260.69;5108302;28;20043;-74
2021/06/19 05:19:35;;;;;;;9.35;6.88;;;;;;;32.34;35.00;100249.66;5109638;28;20262;-73
2021/06/19 05:22:02;;;;;;;8.40;6.82;;;;;;;32.60;34.50;100253.53;5111020;28;20086;-72
2021/06/19 05:24:31;;;;;;;8.30;7.20;;;;;;;32.70;33.86;100263.72;5108572;28;20047;-71
2021/06/19 05:26:57;;;;;;;9.00;7.22;;;;;;;32.84;33.53;100267.69;5109569;28;20460;-71
2021/06/19 05:29:25;;;;;;;9.85;8.65;;;;;;;33.21;32.88;100266.16;5109696;28;20055;-72
2021/06/19 05:31:51;;;;;;;7.13;6.20;;;;;;;33.82;32.17;100263.84;5108270;28;20054;-73
2021/06/19 05:34:19;;;;;;;8.57;6.90;;;;;;;34.25;31.53;100266.50;5109930;28;20043;-72
2021/06/19 05:36:47;;;;;;;7.53;6.70;;;;;;;34.63;31.26;100264.47;5080295;28;20090;-71
2021/06/19 05:39:15;;;;;;;12.05;6.55;;;;;;;35.23;30.56;100271.13;5113782;28;20047;-72
2021/06/19 05:41:46;;;;;;;8.35;7.00;;;;;;;35.73;29.80;100265.88;5114666;28;20051;-71
2021/06/19 05:44:13;;;;;;;8.98;7.28;;;;;;;35.64;29.93;100263.94;5113837;28;20047;-71
2021/06/19 05:46:40;;;;;;;16.58;7.75;;;;;;;35.76;29.39;100264.47;5111904;28;20058;-74
2021/06/19 05:49:10;;;;;;;9.00;6.40;;;;;;;36.09;29.02;100270.44;5111205;28;20048;-73
2021/06/19 05:51:37;;;;;;;7.68;6.22;;;;;;;36.47;28.20;100268.88;5109611;28;20040;-72
2021/06/19 05:54:05;;;;;;;10.80;6.38;;;;;;;36.61;28.21;100263.59;5110627;28;20096;-73
2021/06/19 05:56:35;;;;;;;7.75;6.35;;;;;;;36.22;28.63;100258.03;5109345;28;20057;-74
2021/06/19 05:59:04;;;;;;;7.78;5.88;;;;;;;36.12;28.99;100256.94;5111233;28;20111;-76
2021/06/19 06:01:31;;;;;;;7.07;6.35;;;;;;;36.51;28.48;100263.63;5110494;28;20058;-73
2021/06/19 06:03:59;;;;;;;8.77;5.93;;;;;;;36.36;28.70;100254.38;5111922;28;20051;-74
2021/06/19 06:06:28;;;;;;;8.27;6.00;;;;;;;34.97;30.79;100263.97;5059705;28;20153;-78
2021/06/19 06:08:55;;;;;;;6.78;5.90;;;;;;;33.61;32.89;100260.13;5093238;28;20039;-71
2021/06/19 06:11:22;;;;;;;5.53;5.00;;;;;;;32.44;34.08;100254.41;5114167;28;20054;-75
2021/06/19 06:13:49;;;;;;;5.57;4.80;;;;;;;31.60;34.86;100256.31;5116090;28;20592;-77
2021/06/19 06:16:18;;;;;;;9.70;5.95;;;;;;;30.92;36.22;100256.31;5116815;28;20048;-75
2021/06/19 06:18:48;;;;;;;19.10;5.85;;;;;;;30.98;36.01;100255.31;5120503;28;20083;-71
2021/06/19 06:21:15;;;;;;;8.98;5.57;;;;;;;31.91;35.32;100254.84;5120763;28;20040;-68
2021/06/19 06:23:42;;;;;;;7.72;5.97;;;;;;;32.74;34.11;100262.16;5112291;28;20044;-74
2021/06/19 06:26:09;;;;;;;9.98;5.43;;;;;;;33.48;33.51;100268.81;5120277;28;20036;-78
2021/06/19 06:28:38;;;;;;;10.00;5.65;;;;;;;33.95;32.15;100261.72;5120702;28;20418;-73
2021/06/19 06:31:07;;;;;;;19.67;10.05;;;;;;;34.05;31.72;100253.53;5114792;28;20287;-78
2021/06/19 06:33:36;;;;;;;6.35;5.18;;;;;;;34.38;31.27;100257.81;5123098;28;20051;-75
2021/06/19 06:36:03;;;;;;;6.30;5.00;;;;;;;34.47;30.56;100263.59;5123186;28;20054;-75
2021/06/19 06:38:30;;;;;;;5.97;5.07;;;;;;;34.55;30.63;100254.00;5121125;28;20059;-74
2021/06/19 06:40:58;;;;;;;7.30;5.20;;;;;;;34.58;30.73;100253.47;5127782;28;20130;-76
2021/06/19 06:43:26;;;;;;;7.72;4.95;;;;;;;34.33;31.36;100257.78;5110140;28;20047;-78
2021/06/19 06:48:48;;;;;;;6.10;4.88;;;;;;;34.55;30.78;100256.75;5124680;28;20051;-76
2021/06/19 06:51:17;;;;;;;9.10;5.07;;;;;;;34.13;31.36;100254.94;5126395;28;20058;-76
2021/06/19 06:53:44;;;;;;;8.10;5.07;;;;;;;32.94;32.96;100261.53;5105843;28;20059;-72
2021/06/19 06:56:12;;;;;;;9.25;4.78;;;;;;;31.96;34.78;100257.66;5122585;28;20054;-77
2021/06/19 06:58:41;;;;;;;8.85;4.50;;;;;;;31.32;35.73;100262.69;5121453;28;20327;-75
2021/06/19 07:01:10;;;;;;;6.65;4.50;;;;;;;30.91;36.82;100264.69;5120136;28;20047;-72
2021/06/19 07:03:39;;;;;;;10.15;5.85;;;;;;;30.49;37.43;100263.94;5116677;28;20105;-71
2021/06/19 07:06:07;;;;;;;20.73;6.60;;;;;;;30.25;37.82;100263.16;5121719;28;20055;-72
2021/06/19 07:08:35;;;;;;;8.50;4.30;;;;;;;30.23;37.86;100276.22;5117771;28;20067;-73
2021/06/19 07:11:04;;;;;;;5.63;4.28;;;;;;;30.08;37.67;100267.72;5119033;28;20054;-71
2021/06/19 07:13:34;;;;;;;8.20;4.55;;;;;;;30.03;38.38;100275.75;5119071;28;20043;-72
2021/06/19 07:16:01;;;;;;;6.10;4.38;;;;;;;30.10;38.15;100282.72;5117211;28;20131;-73
2021/06/19 07:18:29;;;;;;;6.43;4.18;;;;;;;30.44;37.39;100276.66;5118446;28;20497;-72
2021/06/19 07:20:56;;;;;;;6.63;4.78;;;;;;;30.57;37.56;100273.63;5117951;28;20488;-72
2021/06/19 07:23:29;;;;;;;7.30;4.13;;;;;;;30.60;37.10;100273.13;5118546;28;20044;-71
2021/06/19 07:25:56;;;;;;;7.60;3.83;;;;;;;30.57;37.39;100273.63;5116688;28;20054;-75
2021/06/19 07:28:23;;;;;;;6.45;3.55;;;;;;;30.54;37.09;100270.56;5118099;28;20411;-73
2021/06/19 07:30:50;;;;;;;6.15;3.92;;;;;;;30.50;36.47;100270.22;5115758;28;20058;-71
2021/06/19 07:33:17;;;;;;;4.75;3.08;;;;;;;30.56;35.92;100269.25;5114624;28;20051;-69
2021/06/19 07:35:44;;;;;;;4.15;3.38;;;;;;;30.54;36.00;100265.94;5117251;28;20067;-73
2021/06/19 07:38:11;;;;;;;4.80;3.88;;;;;;;30.57;35.83;100273.63;5121743;28;20165;-77
2021/06/19 07:40:40;;;;;;;5.63;4.18;;;;;;;30.64;35.26;100257.13;5121691;28;20053;-72
2021/06/19 07:43:07;;;;;;;7.50;3.25;;;;;;;30.72;35.25;100258.63;5121033;28;20047;-74
2021/06/19 07:45:34;;;;;;;8.68;3.67;;;;;;;30.87;35.09;100270.63;5122619;28;20055;-75
2021/06/19 07:48:03;;;;;;;9.15;5.03;;;;;;;31.25;34.76;100262.84;5118833;28;20135;-72
2021/06/19 07:50:30;;;;;;;9.45;8.57;;;;;;;31.32;34.25;100254.50;5117667;28;20090;-71
2021/06/19 07:52:57;;;;;;;3.38;2.78;;;;;;;31.39;33.53;100261.44;5118561;28;20107;-69
2021/06/19 07:55:25;;;;;;;3.47;2.40;;;;;;;31.34;33.61;100252.34;5117361;28;20054;-76
2021/06/19 07:57:53;;;;;;;4.57;2.70;;;;;;;31.32;33.59;100247.13;5104334;28;20051;-75
2021/06/19 08:00:21;;;;;;;5.85;3.22;;;;;;;31.52;32.58;100251.28;5123648;28;20059;-75
2021/06/19 08:02:49;;;;;;;7.72;2.83;;;;;;;31.71;32.03;100233.56;5122735;28;20058;-75
2021/06/19 08:05:16;;;;;;;3.63;2.95;;;;;;;31.84;32.08;100237.81;5125574;28;20044;-73
2021/06/19 08:07:43;;;;;;;6.03;3.22;;;;;;;32.08;31.73;100235.69;5128448;28;20035;-74
2021/06/19 08:10:12;;;;;;;7.43;2.88;;;;;;;32.33;31.10;100226.16;5129963;28;20078;-76
2021/06/19 08:12:39;;;;;;;7.15;2.58;;;;;;;32.58;31.19;100236.53;5134137;27;20038;-75
2021/06/19 08:15:08;;;;;;;7.45;2.58;;;;;;;32.54;30.62;100233.47;5130974;28;20067;-76
2021/06/19 08:17:36;;;;;;;7.40;2.38;;;;;;;32.44;31.04;100232.53;5111422;28;20047;-75
2021/06/19 08:20:07;;;;;;;4.25;2.60;;;;;;;32.37;31.07;100227.28;5127050;28;20039;-73
2021/06/19 08:22:34;;;;;;;4.65;2.20;;;;;;;32.41;31.44;100233.06;5085979;28;20112;-75
2021/06/19 08:25:04;;;;;;;5.05;2.53;;;;;;;32.42;31.26;100230.06;5103712;28;20043;-75
2021/06/19 08:27:31;;;;;;;5.35;2.47;;;;;;;32.49;31.39;100230.69;5119437;28;20047;-76
2021/06/19 08:29:58;;;;;;;3.45;2.70;;;;;;;32.62;30.55;100248.63;5121909;28;20101;-72
2021/06/19 08:32:27;;;;;;;4.30;2.88;;;;;;;32.66;31.30;100238.00;5120616;28;20067;-72
2021/06/19 08:34:54;;;;;;;3.72;2.63;;;;;;;32.72;31.34;100239.72;5118409;28;20074;-73
2021/06/19 08:37:21;;;;;;;5.50;3.40;;;;;;;32.80;30.81;100241.97;5130732;27;20040;-76
2021/06/19 08:39:57;;;;;;;4.88;2.72;;;;;;;32.96;30.79;100237.44;5131081;28;20035;-74
2021/06/19 08:42:24;;;;;;;9.85;3.22;;;;;;;32.96;31.32;100230.06;5129376;28;20057;-73
2021/06/19 08:44:57;;;;;;;6.60;2.95;;;;;;;33.07;30.80;100230.16;5134034;28;20032;-74
2021/06/19 08:47:25;;;;;;;3.35;2.88;;;;;;;33.12;31.02;100230.19;5115899;28;20035;-76
2021/06/19 08:49:55;;;;;;;6.38;4.20;;;;;;;33.12;31.33;100222.84;5131863;28;20118;-72
2021/06/19 08:52:23;;;;;;;5.47;3.70;;;;;;;33.07;31.33;100224.69;5134612;28;20047;-74
2021/06/19 08:54:51;;;;;;;4.72;3.88;;;;;;;32.89;31.69;100229.47;5137158;28;20035;-75
2021/06/19 08:57:21;;;;;;;4.43;3.42;;;;;;;32.90;31.66;100233.84;5134384;28;20054;-74
2021/06/19 08:59:54;;;;;;;6.07;3.00;;;;;;;33.04;31.26;100209.59;5132432;27;20047;-74
2021/06/19 09:02:21;;;;;;;4.05;3.17;;;;;;;32.91;31.53;100215.53;5128111;28;20028;-73
2021/06/19 09:04:54;;;;;;;5.07;3.42;;;;;;;32.80;31.73;100209.13;5135851;28;20095;-71
2021/06/19 09:07:38;;;;;;;5.30;4.07;;;;;;;32.70;32.05;100220.81;5135843;28;20074;-70
2021/06/19 09:10:20;;;;;;;8.20;3.83;;;;;;;32.78;32.33;100215.97;5135860;28;20047;-70
2021/06/19 09:13:07;;;;;;;6.38;4.72;;;;;;;32.89;32.15;100225.91;5136514;28;20031;-71
2021/06/19 09:15:49;;;;;;;3.80;2.55;;;;;;;32.95;31.44;100206.53;5135123;28;20040;-72
2021/06/19 09:18:19;;;;;;;4.22;3.17;;;;;;;33.03;31.91;100207.16;5134622;28;20079;-74
2021/06/19 09:20:52;;;;;;;8.75;3.92;;;;;;;32.91;32.40;100199.94;5118457;28;20063;-73
2021/06/19 09:23:27;;;;;;;5.38;3.35;;;;;;;32.89;32.56;100201.28;5136616;28;20036;-70
2021/06/19 09:26:10;;;;;;;4.32;3.35;;;;;;;33.13;32.38;100204.50;5134853;28;20074;-72
2021/06/19 09:29:03;;;;;;;4.97;4.20;;;;;;;33.17;32.14;100205.66;5133473;28;20101;-72
2021/06/19 09:31:46;;;;;;;5.30;3.50;;;;;;;33.17;31.46;100200.19;5110703;28;20149;-67
2021/06/19 09:34:14;;;;;;;4.05;2.67;;;;;;;33.02;31.30;100210.97;5127716;28;20043;-68
2021/06/19 09:36:48;;;;;;;5.57;3.47;;;;;;;33.08;30.96;100202.53;5134722;28;20043;-71
2021/06/19 09:39:17;;;;;;;7.53;3.20;;;;;;;32.95;30.88;100200.22;5134604;28;20044;-71
2021/06/19 09:41:45;;;;;;;6.38;3.13;;;;;;;33.04;31.13;100214.25;5134294;28;20103;-73
2021/06/19 09:44:16;;;;;;;9.27;3.53;;;;;;;33.20;30.69;100202.38;5133790;28;20036;-75
2021/06/19 09:46:45;;;;;;;7.82;3.25;;;;;;;33.26;30.30;100206.81;5133569;28;20086;-68
2021/06/19 09:49:16;;;;;;;6.78;3.15;;;;;;;33.23;30.57;100192.81;5133794;28;20101;-75
2021/06/19 09:52:01;;;;;;;5.13;2.60;;;;;;;33.33;30.85;100196.44;5131935;28;20048;-75
2021/06/19 09:54:39;;;;;;;3.97;3.17;;;;;;;33.38;30.72;100203.84;5133982;28;20039;-69
2021/06/19 09:57:11;;;;;;;5.60;3.22;;;;;;;33.39;31.03;100183.63;5131513;28;20522;-66
2021/06/19 09:59:45;;;;;;;5.35;2.95;;;;;;;33.31;31.28;100182.22;5123834;28;20079;-68
2021/06/19 10:02:21;;;;;;;5.70;3.17;;;;;;;33.30;31.63;100177.81;5107867;28;20499;-73
2021/06/19 10:04:54;;;;;;;4.53;3.72;;;;;;;33.25;31.07;100177.78;5108180;28;20549;-70
2021/06/19 10:07:23;;;;;;;7.97;2.90;;;;;;;33.24;31.43;100175.28;5111744;28;20056;-72
2021/06/19 10:09:51;;;;;;;4.78;2.80;;;;;;;33.25;31.38;100158.59;5112164;28;20055;-71
2021/06/19 10:12:21;;;;;;;4.47;3.58;;;;;;;33.27;31.77;100163.81;5111076;28;20097;-71
2021/06/19 10:14:50;;;;;;;8.63;2.85;;;;;;;33.42;31.72;100157.59;5105258;28;20112;-71
2021/06/19 10:17:19;;;;;;;6.47;3.78;;;;;;;33.52;32.28;100157.66;5117226;28;20035;-74
2021/06/19 10:19:47;;;;;;;12.40;4.40;;;;;;;33.62;31.61;100157.72;5113718;28;20400;-70
2021/06/19 10:22:18;;;;;;;7.43;3.50;;;;;;;33.77;31.52;100156.16;5122006;28;20057;-75
2021/06/19 10:24:49;;;;;;;5.15;3.45;;;;;;;33.68;31.61;100159.41;5123198;28;20059;-70
2021/06/19 10:27:18;;;;;;;6.15;3.40;;;;;;;33.51;31.36;100161.47;5126139;28;20047;-75
2021/06/19 10:29:50;;;;;;;5.70;3.05;;;;;;;33.55;31.33;100153.56;5130766;28;20036;-75
2021/06/19 10:32:40;;;;;;;7.22;3.50;;;;;;;33.60;32.11;100150.84;5131570;28;20051;-77
2021/06/19 10:35:16;;;;;;;7.15;2.58;;;;;;;33.70;31.45;100142.72;5129461;28;20131;-74
2021/06/19 10:37:44;;;;;;;4.38;3.00;;;;;;;33.73;31.60;100150.41;5130448;28;20050;-76
2021/06/19 10:40:21;;;;;;;3.53;3.15;;;;;;;33.85;30.97;100141.94;5117594;28;20043;-70
2021/06/19 10:42:50;;;;;;;5.13;2.58;;;;;;;33.77;31.15;100137.81;5106739;28;20044;-70
2021/06/19 10:45:22;;;;;;;4.07;3.00;;;;;;;33.67;31.51;100140.50;5114657;28;20502;-71
2021/06/19 10:48:07;;;;;;;4.68;3.67;;;;;;;33.67;31.38;100135.03;5102609;28;20079;-71
2021/06/19 10:50:36;;;;;;;9.52;7.85;;;;;;;33.70;31.42;100142.72;5104738;28;20065;-70
2021/06/19 10:53:06;;;;;;;6.68;3.33;;;;;;;33.80;31.37;100144.66;5110672;28;20135;-70
2021/06/19 10:55:36;;;;;;;4.32;2.63;;;;;;;33.82;31.07;100143.31;5113211;28;20134;-76
2021/06/19 10:58:20;;;;;;;3.50;2.85;;;;;;;33.79;31.40;100127.41;5110045;28;20167;-74
2021/06/19 11:00:51;;;;;;;5.00;3.28;;;;;;;33.75;30.97;100126.31;5105581;28;20054;-70
2021/06/19 11:03:19;;;;;;;4.65;3.17;;;;;;;33.58;31.28;100123.72;5106233;28;20100;-73
2021/06/19 11:06:00;;;;;;;5.28;3.00;;;;;;;33.49;31.68;100117.13;5108207;28;20096;-77
2021/06/19 11:08:28;;;;;;;4.60;3.70;;;;;;;33.51;31.40;100114.94;5090839;28;20631;-76
2021/06/19 11:11:01;;;;;;;5.15;3.75;;;;;;;33.49;31.51;100111.66;5088596;28;20063;-72
2021/06/19 11:13:47;;;;;;;4.40;2.70;;;;;;;33.57;31.82;100107.59;5088955;28;20048;-74
2021/06/19 11:16:53;;;;;;;5.35;4.03;;;;;;;33.84;31.35;100108.25;5086815;28;20047;-73
2021/06/19 11:19:52;;;;;;;3.42;2.47;;;;;;;33.96;31.58;100097.06;5086042;28;20040;-73
2021/06/19 11:22:44;;;;;;;5.25;3.13;;;;;;;33.85;30.86;100101.69;5002140;28;20107;-75
2021/06/19 11:25:40;;;;;;;8.15;2.85;;;;;;;33.74;30.67;100091.78;4963099;28;20047;-75
2021/06/19 11:28:10;;;;;;;4.05;3.03;;;;;;;33.71;30.60;100095.06;4924486;29;20115;-72
2021/06/19 11:30:59;;;;;;;3.88;2.88;;;;;;;33.64;31.06;100086.25;4925335;29;20131;-75
2021/06/19 11:33:44;;;;;;;5.65;3.55;;;;;;;33.66;31.03;100095.88;4856409;29;20119;-74
2021/06/19 11:36:33;;;;;;;4.30;3.28;;;;;;;33.74;31.07;100088.22;4850725;29;20699;-74
2021/06/19 11:39:08;;;;;;;5.03;3.33;;;;;;;33.84;31.22;100085.53;4851011;29;20053;-76
2021/06/19 11:41:43;;;;;;;5.80;3.22;;;;;;;33.96;30.62;100088.84;4850328;29;20161;-74